Time;durP1;ratioP1;P1;durP2;ratioP2;P2;SDS_P1;SDS_P2;PMS_P1;PMS_P2;Temp;Humidity;BMP_temperature;BMP_pressure;BME280_temperature;BME280_humidity;BME280_pressure;Samples;Min_cycle;Max_cycle;Signal;HPM_P1;HPM_P2
2023/08/25 00:01:45;;;;;;;0.30;0.30;;;29.70;55.40;;;30.33;40.47;94904.63;5012203;28;20274;-31
2023/08/25 00:04:12;;;;;;;0.30;0.30;;;29.70;55.60;;;30.34;40.36;94894.59;5012155;28;20590;-31
2023/08/25 00:06:39;;;;;;;0.20;0.20;;;29.70;55.80;;;30.34;40.60;94889.94;5012147;28;20189;-31
2023/08/25 00:09:06;;;;;;;0.30;0.30;;;29.60;55.90;;;30.34;40.66;94887.25;5012276;28;20284;-30
2023/08/25 00:11:33;;;;;;;0.30;0.30;;;29.60;56.00;;;30.35;41.05;94877.25;5012058;28;20195;-31
2023/08/25 00:14:00;;;;;;;0.30;0.30;;;29.60;56.10;;;30.36;40.48;94897.78;5011777;28;20196;-32
2023/08/25 00:16:28;;;;;;;0.30;0.30;;;29.60;56.20;;;30.35;40.84;94883.44;5011766;28;20247;-31
2023/08/25 00:18:55;;;;;;;0.40;0.40;;;29.60;56.20;;;30.33;40.43;94888.38;5012459;28;20228;-31
2023/08/25 00:21:22;;;;;;;0.30;0.30;;;29.60;56.20;;;30.30;41.08;94885.53;5011959;28;20299;-31
2023/08/25 00:23:49;;;;;;;0.30;0.30;;;29.60;56.00;;;30.24;41.21;94881.38;5012448;28;20192;-32
2023/08/25 00:26:16;;;;;;;0.20;0.20;;;29.60;55.90;;;30.17;41.08;94882.63;5012871;28;20208;-32
2023/08/25 00:28:43;;;;;;;0.30;0.30;;;29.60;55.90;;;30.13;40.78;94884.41;5030791;28;20652;-31
2023/08/25 00:31:10;;;;;;;0.30;0.30;;;29.50;55.80;;;30.10;40.66;94887.75;5030853;28;20243;-30
2023/08/25 00:33:50;;;;;;;0.30;0.30;;;29.50;55.70;;;30.06;40.77;94900.28;5015307;28;20231;-30
2023/08/25 00:36:17;;;;;;;0.30;0.30;;;29.50;55.60;;;30.03;40.30;94895.53;5015746;28;20201;-31
2023/08/25 00:38:44;;;;;;;0.20;0.20;;;29.50;55.50;;;29.99;40.24;94900.78;5015626;28;20196;-32
2023/08/25 00:41:11;;;;;;;0.30;0.30;;;29.40;55.30;;;29.94;40.51;94902.84;5014338;28;20200;-30
2023/08/25 00:43:39;;;;;;;0.30;0.30;;;29.40;55.00;;;29.89;40.20;94908.38;5015115;28;20611;-30
2023/08/25 00:46:08;;;;;;;0.30;0.30;;;29.40;55.10;;;29.86;40.46;94893.56;5015661;28;20208;-30
2023/08/25 00:48:36;;;;;;;0.30;0.30;;;29.40;55.20;;;29.88;40.46;94902.16;5014084;28;20579;-32
2023/08/25 00:51:05;;;;;;;0.30;0.30;;;29.30;56.50;;;29.86;40.39;94890.88;5015169;28;20256;-31
2023/08/25 00:53:37;;;;;;;0.30;0.30;;;29.30;55.00;;;29.84;39.99;94887.69;5014074;28;20243;-32
2023/08/25 00:56:05;;;;;;;0.30;0.30;;;29.20;54.90;;;29.79;39.85;94890.53;5014883;28;20204;-32
2023/08/25 00:58:32;;;;;;;0.22;0.22;;;29.20;54.80;;;29.77;40.27;94893.56;5014873;28;20552;-30
2023/08/25 01:01:03;;;;;;;0.28;0.28;;;29.20;54.80;;;29.75;39.98;94884.16;5014715;28;20283;-29
2023/08/25 01:03:30;;;;;;;0.20;0.20;;;29.20;54.70;;;29.70;40.00;94861.56;5015083;28;20259;-31
2023/08/25 01:05:58;;;;;;;0.30;0.30;;;29.10;54.60;;;29.70;40.19;94863.50;5015109;28;20640;-31
2023/08/25 01:08:25;;;;;;;0.30;0.30;;;29.20;54.80;;;29.71;39.60;94859.66;5030552;28;20598;-31
2023/08/25 01:11:08;;;;;;;0.40;0.40;;;29.10;54.80;;;29.73;39.64;94845.84;5014734;28;20286;-31
2023/08/25 01:14:26;;;;;;;0.30;0.30;;;29.10;55.00;;;29.69;39.65;94829.47;5013789;28;20615;-30
2023/08/25 01:17:06;;;;;;;0.35;0.35;;;29.10;54.90;;;29.68;40.24;94828.66;4982319;28;20245;-31
2023/08/25 01:19:55;;;;;;;0.25;0.25;;;29.10;54.90;;;29.67;39.65;94821.66;5013570;28;20642;-31
2023/08/25 01:22:48;;;;;;;0.30;0.30;;;29.10;54.80;;;29.64;39.66;94816.88;5014555;28;20203;-31
2023/08/25 01:25:31;;;;;;;0.30;0.30;;;29.10;54.90;;;29.64;39.78;94811.47;5014353;28;20203;-30
2023/08/25 01:28:02;;;;;;;0.20;0.20;;;29.00;55.10;;;29.63;40.15;94815.28;5013412;28;20536;-31
2023/08/25 01:30:32;;;;;;;0.28;0.28;;;29.10;55.20;;;29.64;39.87;94803.38;5029984;28;20556;-32
2023/08/25 01:33:00;;;;;;;0.30;0.30;;;29.10;55.30;;;29.64;40.02;94803.38;5013458;28;20215;-31
2023/08/25 01:35:45;;;;;;;0.40;0.40;;;29.00;55.30;;;29.66;40.08;94808.44;5014393;28;20234;-31
2023/08/25 01:38:34;;;;;;;0.20;0.20;;;29.00;55.40;;;29.64;40.73;94806.06;5014166;28;20191;-31
2023/08/25 01:41:32;;;;;;;0.30;0.30;;;29.00;55.60;;;29.64;40.84;94805.28;5013468;28;20191;-31
2023/08/25 01:44:05;;;;;;;0.30;0.30;;;29.00;55.70;;;29.65;40.12;94804.97;5013288;28;20243;-31
2023/08/25 01:46:35;;;;;;;0.30;0.30;;;29.00;55.80;;;29.65;40.48;94804.16;5013405;28;20187;-31
2023/08/25 01:49:03;;;;;;;0.30;0.30;;;29.00;56.50;;;29.64;40.34;94802.59;5014246;28;20626;-31
2023/08/25 01:51:32;;;;;;;0.20;0.20;;;29.00;55.90;;;29.60;40.81;94810.53;5013540;28;20219;-32
2023/08/25 01:53:59;;;;;;;0.30;0.30;;;29.00;55.90;;;29.58;40.96;94807.34;5029634;28;20199;-31
2023/08/25 01:56:28;;;;;;;0.30;0.30;;;28.90;55.90;;;29.57;40.92;94802.25;5014011;28;20206;-31
2023/08/25 01:58:55;;;;;;;0.30;0.30;;;28.90;55.90;;;29.54;41.17;94798.25;5029494;28;20207;-31
2023/08/25 02:01:22;;;;;;;0.30;0.30;;;28.90;56.20;;;29.51;40.88;94799.69;5029398;28;20286;-30
2023/08/25 02:03:49;;;;;;;0.30;0.30;;;28.90;56.20;;;29.46;41.28;94793.66;5013932;28;20362;-31
2023/08/25 02:06:17;;;;;;;0.30;0.30;;;28.80;56.20;;;29.44;40.70;94791.25;5029586;28;20217;-31
2023/08/25 02:08:44;;;;;;;0.30;0.30;;;28.90;56.40;;;29.40;41.15;94787.59;5014556;28;20276;-32
2023/08/25 02:11:11;;;;;;;0.30;0.30;;;28.80;56.20;;;29.36;41.09;94787.44;5014108;28;20237;-30
2023/08/25 02:13:38;;;;;;;0.30;0.30;;;28.80;56.30;;;29.34;41.07;94784.22;5013981;28;20218;-32
2023/08/25 02:16:05;;;;;;;0.38;0.38;;;28.80;56.40;;;29.32;41.58;94788.38;5013480;28;20265;-31
2023/08/25 02:18:33;;;;;;;0.30;0.30;;;28.70;56.50;;;29.31;41.27;94786.78;5013906;28;20267;-31
2023/08/25 02:21:00;;;;;;;0.30;0.30;;;28.70;56.60;;;29.29;41.26;94770.84;4996553;28;20195;-30
2023/08/25 02:23:27;;;;;;;0.20;0.20;;;28.70;56.60;;;29.27;41.79;94766.88;5013950;28;20209;-31
2023/08/25 02:25:54;;;;;;;0.30;0.30;;;28.70;56.60;;;29.23;41.79;94764.81;5029316;28;20536;-31
2023/08/25 02:28:21;;;;;;;0.30;0.30;;;28.70;56.70;;;29.21;41.14;94758.13;4996356;28;20218;-33
2023/08/25 02:30:48;;;;;;;0.35;0.35;;;28.70;56.70;;;29.20;41.28;94754.63;5013540;28;20201;-32
2023/08/25 02:33:16;;;;;;;0.30;0.30;;;28.60;56.70;;;29.18;41.51;94740.63;5029032;28;20218;-30
2023/08/25 02:35:44;;;;;;;0.30;0.30;;;28.60;56.80;;;29.16;41.53;94720.47;5029007;28;20207;-31
2023/08/25 02:38:11;;;;;;;0.28;0.28;;;28.60;56.90;;;29.14;41.38;94720.78;5028847;28;20201;-31
2023/08/25 02:40:39;;;;;;;0.30;0.30;;;28.60;56.90;;;29.12;42.04;94738.41;4996271;28;20201;-32
2023/08/25 02:43:07;;;;;;;0.30;0.30;;;28.60;58.10;;;29.07;42.22;94736.66;5028866;28;20194;-32
2023/08/25 02:45:35;;;;;;;0.30;0.30;;;28.60;57.10;;;29.05;42.23;94728.88;5013859;28;20248;-31
2023/08/25 02:48:03;;;;;;;0.20;0.20;;;28.50;57.00;;;29.05;41.64;94723.47;5028611;28;20209;-31
2023/08/25 02:50:31;;;;;;;0.30;0.30;;;28.50;57.30;;;29.04;42.42;94716.47;5011717;28;20206;-31
2023/08/25 02:52:58;;;;;;;0.30;0.30;;;28.50;57.30;;;29.02;41.98;94705.19;5013470;28;20586;-32
2023/08/25 02:55:25;;;;;;;0.38;0.38;;;28.50;57.40;;;29.00;42.29;94703.91;5013399;28;20199;-32
2023/08/25 02:57:52;;;;;;;0.30;0.30;;;28.50;57.20;;;29.00;41.73;94712.00;5013050;28;20210;-31
2023/08/25 03:00:23;;;;;;;0.30;0.30;;;28.50;57.30;;;28.97;41.66;94709.97;5028493;28;20221;-32
2023/08/25 03:02:51;;;;;;;0.30;0.30;;;28.40;57.20;;;28.96;42.27;94706.44;5012124;28;20625;-32
2023/08/25 03:05:21;;;;;;;0.30;0.30;;;28.40;57.30;;;28.93;42.42;94707.09;5012388;28;20206;-32
2023/08/25 03:07:53;;;;;;;0.30;0.30;;;28.40;57.30;;;28.90;42.28;94700.38;5025550;28;20633;-31
2023/08/25 03:10:22;;;;;;;0.38;0.38;;;28.40;57.40;;;28.89;41.91;94690.72;5011906;28;20282;-31
2023/08/25 03:12:49;;;;;;;0.30;0.30;;;28.30;57.30;;;28.87;41.84;94684.06;5012006;28;20199;-31
2023/08/25 03:15:16;;;;;;;0.30;0.30;;;28.30;57.40;;;28.84;42.28;94681.97;5011916;28;20262;-32
2023/08/25 03:17:44;;;;;;;0.30;0.30;;;28.30;57.50;;;28.83;42.47;94678.50;5011603;28;20245;-31
2023/08/25 03:20:11;;;;;;;0.50;0.50;;;28.30;57.60;;;28.84;42.69;94679.28;5011699;28;20205;-32
2023/08/25 03:22:38;;;;;;;0.30;0.30;;;28.30;57.80;;;28.83;42.18;94686.59;5012594;28;20214;-30
2023/08/25 03:25:07;;;;;;;0.30;0.30;;;28.30;57.90;;;28.84;42.70;94690.06;5011785;28;20294;-31
2023/08/25 03:27:37;;;;;;;0.32;0.32;;;28.20;57.70;;;28.83;42.46;94697.38;5012934;28;20586;-31
2023/08/25 03:30:06;;;;;;;0.30;0.30;;;28.20;57.80;;;28.84;42.69;94698.94;5013385;28;20199;-32
2023/08/25 03:32:33;;;;;;;0.30;0.30;;;28.20;59.00;;;28.85;42.50;94691.66;5012814;28;20203;-32
2023/08/25 03:35:01;;;;;;;0.30;0.30;;;28.20;57.90;;;28.85;42.11;94692.44;5011607;28;20265;-32
2023/08/25 03:37:28;;;;;;;0.30;0.30;;;28.20;58.00;;;28.85;42.51;94688.97;5011461;28;20279;-32
2023/08/25 03:39:56;;;;;;;0.30;0.30;;;28.20;58.10;;;28.88;42.78;94688.31;5011824;28;20200;-31
2023/08/25 03:42:25;;;;;;;0.30;0.30;;;28.20;58.20;;;28.89;42.68;94689.91;5011017;28;20210;-30
2023/08/25 03:44:52;;;;;;;0.30;0.30;;;28.20;58.10;;;28.90;42.91;94683.41;5011426;28;20202;-32
2023/08/25 03:47:19;;;;;;;0.30;0.30;;;28.20;58.20;;;28.93;42.90;94688.19;4995321;28;20639;-32
2023/08/25 03:49:49;;;;;;;0.35;0.35;;;28.20;58.20;;;28.95;42.67;94688.66;5011269;28;20217;-31
2023/08/25 03:52:16;;;;;;;0.40;0.40;;;28.20;58.20;;;28.96;42.44;94694.88;5011360;28;20203;-33
2023/08/25 03:54:43;;;;;;;0.30;0.30;;;28.20;58.20;;;28.99;42.57;94692.34;5011361;28;20210;-33
2023/08/25 03:57:11;;;;;;;0.30;0.30;;;28.20;58.20;;;28.98;42.74;94687.22;5010130;28;20281;-32
2023/08/25 03:59:38;;;;;;;0.32;0.32;;;28.20;58.20;;;28.99;42.17;94686.13;4992852;28;20215;-30
2023/08/25 04:02:05;;;;;;;0.25;0.25;;;28.20;58.20;;;28.98;42.83;94690.75;5014552;28;20191;-31
2023/08/25 04:04:32;;;;;;;0.30;0.30;;;28.20;58.20;;;28.98;42.67;94685.34;5014311;28;20231;-33
2023/08/25 04:07:00;;;;;;;0.30;0.30;;;28.20;58.30;;;28.98;42.66;94684.53;5030369;28;20279;-34
2023/08/25 04:09:27;;;;;;;0.30;0.30;;;28.20;58.20;;;28.99;42.22;94686.13;5015990;28;20614;-32
2023/08/25 04:11:57;;;;;;;0.30;0.30;;;28.20;58.30;;;28.99;42.34;94691.53;5021170;28;20295;-34
2023/08/25 04:14:25;;;;;;;0.30;0.30;;;28.20;58.20;;;29.00;42.73;94693.13;5011739;28;20230;-31
2023/08/25 04:16:53;;;;;;;0.22;0.22;;;28.20;58.30;;;28.98;42.76;94698.84;4998804;28;20247;-31
2023/08/25 04:19:21;;;;;;;0.30;0.30;;;28.20;58.40;;;28.98;42.09;94700.72;5030935;28;20202;-33
2023/08/25 04:21:49;;;;;;;0.40;0.40;;;28.20;58.30;;;28.98;42.87;94695.31;5016548;28;20531;-32
2023/08/25 04:24:19;;;;;;;0.28;0.28;;;28.20;58.30;;;28.96;42.72;94695.66;5080699;28;20629;-32
2023/08/25 04:26:46;;;;;;;0.30;0.30;;;28.20;58.40;;;28.96;42.83;94702.97;5011324;28;20209;-32
2023/08/25 04:29:14;;;;;;;0.30;0.30;;;28.20;58.30;;;28.94;42.29;94687.06;5011068;28;20208;-32
2023/08/25 04:31:42;;;;;;;0.30;0.30;;;28.20;58.30;;;28.94;42.27;94686.28;5011407;28;20214;-33
2023/08/25 04:34:15;;;;;;;0.25;0.25;;;28.20;58.30;;;28.91;42.82;94685.00;4995105;28;20208;-32
2023/08/25 04:36:45;;;;;;;0.30;0.30;;;28.20;58.40;;;28.91;42.36;94687.69;5080635;28;20221;-31
2023/08/25 04:39:13;;;;;;;0.40;0.40;;;28.20;58.40;;;28.91;42.89;94696.59;5011005;28;20227;-32
2023/08/25 04:41:42;;;;;;;0.30;0.30;;;28.20;58.40;;;28.90;42.42;94702.31;5080545;28;20518;-33
2023/08/25 04:44:09;;;;;;;0.32;0.32;;;28.20;58.50;;;28.89;42.89;94700.72;5010930;28;20278;-32
2023/08/25 04:46:36;;;;;;;0.30;0.30;;;28.20;58.50;;;28.87;42.79;94700.25;4994627;28;20659;-31
2023/08/25 04:49:04;;;;;;;0.30;0.30;;;28.20;58.50;;;28.88;43.13;94704.50;5010652;28;20219;-31
2023/08/25 04:51:35;;;;;;;0.32;0.32;;;28.20;58.50;;;28.86;42.57;94701.34;5080955;28;20607;-31
2023/08/25 04:54:06;;;;;;;0.35;0.35;;;28.10;58.50;;;28.87;43.02;94700.25;4994533;28;20611;-32
2023/08/25 04:56:35;;;;;;;0.28;0.28;;;28.10;58.60;;;28.86;43.00;94704.06;5010617;28;20215;-31
2023/08/25 04:59:03;;;;;;;0.30;0.30;;;28.10;58.60;;;28.85;43.01;94702.47;5010577;28;20222;-30
2023/08/25 05:01:32;;;;;;;0.20;0.20;;;28.10;58.60;;;28.85;42.70;94702.47;4994422;28;20222;-32
2023/08/25 05:04:00;;;;;;;0.30;0.30;;;28.10;58.70;;;28.82;42.69;94693.09;5080430;28;20219;-32
2023/08/25 05:06:28;;;;;;;0.30;0.30;;;28.10;58.70;;;28.83;43.14;94697.38;4994271;28;20221;-33
2023/08/25 05:08:56;;;;;;;0.30;0.30;;;28.10;58.80;;;28.81;42.69;94702.28;5010466;28;20544;-31
2023/08/25 05:11:23;;;;;;;0.20;0.20;;;28.10;58.80;;;28.81;42.70;94699.59;5079693;28;20208;-32
2023/08/25 05:13:50;;;;;;;0.20;0.20;;;28.10;58.90;;;28.81;42.71;94707.69;5079828;28;20256;-31
2023/08/25 05:16:19;;;;;;;0.25;0.25;;;28.10;59.00;;;28.80;42.78;94703.38;5010203;28;20259;-33
2023/08/25 05:18:52;;;;;;;0.30;0.30;;;28.10;59.10;;;28.80;43.09;94703.38;5085877;28;20707;-31
2023/08/25 05:21:20;;;;;;;0.30;0.30;;;28.10;59.20;;;28.82;43.43;94716.56;5008388;28;20313;-31
2023/08/25 05:23:48;;;;;;;0.25;0.25;;;28.10;59.20;;;28.81;43.53;94714.97;5017940;28;20249;-31
2023/08/25 05:26:16;;;;;;;0.30;0.30;;;28.00;59.20;;;28.80;43.58;94706.09;5029976;28;20207;-33
2023/08/25 05:28:56;;;;;;;0.30;0.30;;;28.10;59.30;;;28.80;43.24;94705.31;5029922;28;20658;-32
2023/08/25 05:31:23;;;;;;;0.30;0.30;;;28.10;59.40;;;28.79;43.84;94703.72;5029462;28;20287;-31
2023/08/25 05:34:19;;;;;;;0.30;0.30;;;28.10;59.50;;;28.77;43.29;94709.41;5030582;28;20547;-34
2023/08/25 05:36:51;;;;;;;0.32;0.32;;;28.10;59.60;;;28.77;43.76;94709.41;5029848;28;20263;-31
2023/08/25 05:39:20;;;;;;;0.28;0.28;;;28.10;59.60;;;28.75;43.53;94711.63;5028117;28;20209;-33
2023/08/25 05:41:49;;;;;;;0.20;0.20;;;28.10;59.80;;;28.75;44.10;94712.41;4999874;28;20198;-31
2023/08/25 05:44:16;;;;;;;0.30;0.30;;;28.10;59.80;;;28.75;44.20;94712.41;4996329;28;20230;-33
2023/08/25 05:46:44;;;;;;;0.20;0.20;;;28.10;59.90;;;28.75;44.23;94698.16;5014182;28;20655;-32
2023/08/25 05:49:11;;;;;;;0.20;0.20;;;28.10;60.00;;;28.74;44.20;94694.63;5013076;28;20216;-32
2023/08/25 05:51:39;;;;;;;0.30;0.30;;;28.10;60.00;;;28.74;44.17;94693.84;5013140;28;20197;-33
2023/08/25 05:54:06;;;;;;;0.30;0.30;;;28.10;60.00;;;28.73;43.83;94695.75;5013769;28;20256;-36
2023/08/25 05:56:33;;;;;;;0.20;0.20;;;28.10;60.10;;;28.74;44.05;94694.63;5018636;28;20212;-32
2023/08/25 05:59:00;;;;;;;0.30;0.30;;;28.10;60.10;;;28.75;43.80;94695.44;4994470;28;20196;-32
2023/08/25 06:01:28;;;;;;;0.30;0.30;;;28.00;60.00;;;28.75;44.40;94682.72;4993484;28;20200;-34
2023/08/25 06:03:59;;;;;;;0.20;0.20;;;28.00;60.10;;;28.75;43.93;94690.84;4994068;28;20199;-33
2023/08/25 06:06:26;;;;;;;0.30;0.30;;;28.10;60.20;;;28.77;44.74;94682.41;4994350;28;20209;-33
2023/08/25 06:08:54;;;;;;;0.28;0.28;;;28.10;60.20;;;28.78;44.10;94686.72;4993350;28;20203;-32
2023/08/25 06:11:22;;;;;;;0.30;0.30;;;28.10;60.30;;;28.78;44.14;94681.31;4994120;28;20191;-32
2023/08/25 06:13:49;;;;;;;0.30;0.30;;;28.10;60.30;;;28.79;44.72;94682.91;5009416;28;20668;-31
2023/08/25 06:16:17;;;;;;;0.30;0.30;;;28.10;60.30;;;28.80;44.65;94681.78;4994006;28;20236;-32
2023/08/25 06:18:44;;;;;;;0.30;0.30;;;28.10;60.30;;;28.80;44.72;94676.41;4994371;28;20205;-34
2023/08/25 06:21:11;;;;;;;0.30;0.30;;;28.10;60.30;;;28.82;44.75;94673.38;4994051;28;20238;-34
2023/08/25 06:23:38;;;;;;;0.30;0.30;;;28.20;60.40;;;28.83;44.26;94675.78;4998022;28;20196;-31
2023/08/25 06:26:06;;;;;;;0.20;0.20;;;28.20;60.30;;;28.85;44.21;94678.16;5005178;28;20638;-33
2023/08/25 06:28:33;;;;;;;0.30;0.30;;;28.20;60.30;;;28.86;44.85;94668.97;5013945;28;20194;-31
2023/08/25 06:31:01;;;;;;;0.30;0.30;;;28.20;60.20;;;28.86;44.15;94675.13;5014083;28;20199;-33
2023/08/25 06:33:29;;;;;;;0.30;0.30;;;28.20;60.20;;;28.89;44.47;94673.72;5014048;28;20287;-33
2023/08/25 06:35:57;;;;;;;0.20;0.20;;;28.20;60.20;;;28.90;44.52;94672.59;5013454;28;20202;-33
2023/08/25 06:38:24;;;;;;;0.30;0.30;;;28.30;60.10;;;28.90;44.47;94669.91;5013591;28;20219;-35
2023/08/25 06:40:52;;;;;;;0.22;0.22;;;28.30;60.10;;;28.92;44.48;94675.78;5013702;28;20212;-33
2023/08/25 06:43:19;;;;;;;0.20;0.20;;;28.30;60.10;;;28.93;43.96;94677.41;5013331;28;20638;-35
2023/08/25 06:45:46;;;;;;;0.30;0.30;;;28.30;60.10;;;28.90;44.52;94670.69;5013315;28;20272;-32
2023/08/25 06:48:14;;;;;;;0.30;0.30;;;28.30;60.10;;;28.97;44.02;94682.97;5013565;28;20238;-32
2023/08/25 06:50:41;;;;;;;0.30;0.30;;;28.30;60.10;;;28.97;44.23;94674.88;5013132;28;20251;-32
2023/08/25 06:53:08;;;;;;;0.20;0.20;;;28.30;60.20;;;28.98;44.17;94673.72;5013457;28;20194;-32
2023/08/25 06:55:35;;;;;;;0.30;0.30;;;28.30;60.20;;;28.98;44.66;94677.25;5013130;28;20642;-32
2023/08/25 06:58:03;;;;;;;0.30;0.30;;;28.40;60.30;;;29.00;44.76;94676.91;5013354;28;20256;-33
2023/08/25 07:00:30;;;;;;;0.20;0.20;;;28.40;60.30;;;29.02;44.15;94686.28;5013509;28;20187;-32
2023/08/25 07:02:57;;;;;;;0.30;0.30;;;28.40;60.30;;;29.01;44.48;94670.41;5013285;28;20195;-33
2023/08/25 07:05:24;;;;;;;0.20;0.20;;;28.40;60.20;;;29.02;44.13;94675.50;5013804;28;20563;-34
2023/08/25 07:07:52;;;;;;;0.30;0.30;;;28.40;60.20;;;29.03;44.20;94670.91;5012917;28;20230;-34
2023/08/25 07:10:20;;;;;;;0.30;0.30;;;28.40;60.10;;;29.04;44.65;94681.38;5012825;28;20285;-32
2023/08/25 07:12:47;;;;;;;0.30;0.30;;;28.40;60.10;;;29.03;44.55;94674.38;5013036;28;20210;-32
2023/08/25 07:15:14;;;;;;;0.30;0.30;;;28.50;60.10;;;29.05;44.68;94672.16;5013433;28;20204;-35
2023/08/25 07:17:41;;;;;;;0.30;0.30;;;28.40;60.00;;;29.06;44.52;94673.75;5012616;28;20239;-32
2023/08/25 07:20:09;;;;;;;0.20;0.20;;;28.40;60.10;;;29.07;44.04;94674.53;5012832;28;20201;-32
2023/08/25 07:22:37;;;;;;;0.30;0.30;;;28.40;60.10;;;29.06;44.14;94676.47;5012978;28;20215;-32
2023/08/25 07:25:05;;;;;;;0.20;0.20;;;28.50;60.10;;;29.06;43.93;94679.16;5012736;28;20188;-33
2023/08/25 07:27:32;;;;;;;0.30;0.30;;;28.40;60.00;;;29.08;44.22;94676.13;5012654;28;20223;-31
2023/08/25 07:29:59;;;;;;;0.32;0.32;;;28.50;60.00;;;29.08;43.84;94684.25;5012531;28;20190;-35
2023/08/25 07:32:26;;;;;;;0.30;0.30;;;28.50;59.90;;;29.09;44.25;94666.94;5012880;28;20257;-32
2023/08/25 07:34:56;;;;;;;0.20;0.20;;;28.50;59.90;;;29.08;43.87;94668.03;5012574;28;20291;-34
2023/08/25 07:37:25;;;;;;;0.30;0.30;;;28.50;59.80;;;29.10;43.70;94673.94;5009357;28;20284;-33
2023/08/25 07:39:54;;;;;;;0.22;0.22;;;28.50;59.80;;;29.10;44.33;94673.94;5001571;28;20283;-33
2023/08/25 07:42:23;;;;;;;0.20;0.20;;;28.50;59.60;;;29.12;43.64;94679.00;5008249;28;20192;-33
2023/08/25 07:44:50;;;;;;;0.40;0.40;;;28.50;59.60;;;29.12;43.85;94690.59;4992917;28;20208;-33
2023/08/25 07:47:17;;;;;;;0.30;0.30;;;28.50;59.50;;;29.12;43.79;94698.69;4993148;28;20201;-32
2023/08/25 07:49:45;;;;;;;0.30;0.30;;;28.50;59.50;;;29.13;43.64;94691.41;4993080;28;20200;-32
2023/08/25 07:52:12;;;;;;;0.20;0.20;;;28.50;59.50;;;29.15;43.93;94686.47;4992955;28;20203;-32
2023/08/25 07:54:39;;;;;;;0.30;0.30;;;28.50;59.50;;;29.16;43.53;94685.34;4992772;28;20636;-32
2023/08/25 07:57:07;;;;;;;0.30;0.30;;;28.50;59.40;;;29.17;44.08;94686.94;4992697;28;20210;-34
2023/08/25 07:59:34;;;;;;;0.20;0.20;;;28.50;59.40;;;29.18;43.24;94693.94;4993286;28;20192;-31
2023/08/25 08:02:03;;;;;;;0.20;0.20;;;28.50;60.40;;;29.20;43.28;94689.03;4993285;28;20204;-33
2023/08/25 08:04:31;;;;;;;0.30;0.30;;;28.50;59.40;;;29.21;43.41;94682.50;4992711;28;20218;-33
2023/08/25 08:07:00;;;;;;;0.30;0.30;;;28.60;59.40;;;29.22;43.29;94682.19;4992608;28;20254;-32
2023/08/25 08:09:27;;;;;;;0.20;0.20;;;28.60;59.30;;;29.23;43.42;94691.91;4992828;28;20198;-32
2023/08/25 08:11:55;;;;;;;0.30;0.30;;;28.60;59.20;;;29.25;43.30;94691.56;4992698;28;20519;-32
2023/08/25 08:14:22;;;;;;;0.32;0.32;;;28.60;59.20;;;29.25;43.76;94691.56;5076428;28;20200;-32
2023/08/25 08:17:05;;;;;;;0.20;0.20;;;28.60;59.10;;;29.27;43.14;94697.44;4992415;28;20679;-32
2023/08/25 08:19:32;;;;;;;0.30;0.30;;;28.60;60.20;;;29.28;43.15;94693.63;4992997;28;20199;-33
2023/08/25 08:21:59;;;;;;;0.30;0.30;;;28.60;59.00;;;29.29;43.71;94699.84;4992517;28;20191;-34
2023/08/25 08:24:27;;;;;;;0.30;0.30;;;28.60;59.00;;;29.30;42.96;94694.13;4992425;28;20191;-32
2023/08/25 08:27:15;;;;;;;0.30;0.30;;;28.70;59.20;;;29.30;43.15;94704.94;4992723;28;20174;-32
2023/08/25 08:29:42;;;;;;;0.30;0.30;;;28.60;59.10;;;29.32;43.15;94696.50;4992639;28;20204;-32
2023/08/25 08:32:10;;;;;;;0.30;0.30;;;28.60;59.00;;;29.33;43.06;94698.94;4991918;28;20239;-34
2023/08/25 08:34:37;;;;;;;0.20;0.20;;;28.70;59.10;;;29.34;43.19;94694.31;4992891;28;20228;-34
2023/08/25 08:37:07;;;;;;;0.30;0.30;;;28.70;59.30;;;29.35;43.65;94709.41;4992670;28;20191;-33
2023/08/25 08:39:37;;;;;;;0.30;0.30;;;28.70;59.20;;;29.38;42.99;94706.06;4999149;28;20245;-32
2023/08/25 08:42:07;;;;;;;0.30;0.30;;;28.70;59.10;;;29.39;43.66;94692.25;5000389;28;20196;-32
2023/08/25 08:44:36;;;;;;;0.30;0.30;;;28.70;59.00;;;29.41;43.22;94683.00;5002889;28;20200;-32
2023/08/25 08:47:04;;;;;;;0.22;0.22;;;28.70;59.00;;;29.42;43.24;94693.53;5003020;28;20700;-34
2023/08/25 08:49:34;;;;;;;0.30;0.30;;;28.80;60.30;;;29.45;43.30;94694.78;5013776;28;20214;-34
2023/08/25 08:52:03;;;;;;;0.30;0.30;;;28.80;59.10;;;29.47;43.69;94689.88;5013553;28;20215;-33
2023/08/25 08:54:32;;;;;;;0.30;0.30;;;28.80;60.30;;;29.47;43.50;94693.34;5012589;28;20209;-34
2023/08/25 08:57:00;;;;;;;0.30;0.30;;;28.80;59.10;;;29.49;43.34;94687.63;5009505;28;20535;-35
2023/08/25 08:59:27;;;;;;;0.22;0.22;;;28.80;60.10;;;29.51;43.28;94685.41;5004120;28;20289;-33
2023/08/25 09:01:57;;;;;;;0.30;0.30;;;28.80;58.90;;;29.52;42.81;94689.69;5005411;28;20539;-32
2023/08/25 09:04:25;;;;;;;0.30;0.30;;;28.90;58.90;;;29.54;43.18;94698.25;4998066;28;20631;-32
2023/08/25 09:06:55;;;;;;;0.20;0.20;;;28.90;58.90;;;29.55;43.16;94697.16;5002224;28;20189;-32
2023/08/25 09:09:23;;;;;;;0.30;0.30;;;28.90;58.80;;;29.55;42.97;94687.16;5011821;28;20200;-33
2023/08/25 09:11:50;;;;;;;0.30;0.30;;;28.90;58.80;;;29.58;42.84;94685.72;5012277;28;20243;-36
2023/08/25 09:14:28;;;;;;;0.30;0.30;;;28.90;58.80;;;29.58;42.93;94690.31;5014502;28;20211;-34
2023/08/25 09:16:59;;;;;;;0.30;0.30;;;28.90;58.80;;;29.60;43.41;94680.00;5012051;28;20311;-34
2023/08/25 09:19:33;;;;;;;0.30;0.30;;;28.90;58.80;;;29.63;43.43;94673.97;5008169;28;20216;-33
2023/08/25 09:22:02;;;;;;;0.20;0.20;;;28.90;58.70;;;29.64;42.67;94668.22;5006286;28;20568;-34
2023/08/25 09:24:30;;;;;;;0.20;0.20;;;29.00;58.80;;;29.66;42.66;94678.72;5078272;28;20194;-35
2023/08/25 09:26:57;;;;;;;0.20;0.20;;;29.00;58.80;;;29.68;42.63;94690.78;4995234;28;20199;-33
2023/08/25 09:29:25;;;;;;;0.40;0.40;;;29.00;58.70;;;29.69;42.55;94700.50;4994240;28;20194;-33
2023/08/25 09:31:52;;;;;;;0.30;0.30;;;29.00;58.60;;;29.72;42.46;94677.44;4995086;28;20220;-34
2023/08/25 09:34:19;;;;;;;0.20;0.20;;;29.00;58.60;;;29.74;43.06;94683.31;5010152;28;20216;-35
2023/08/25 09:36:55;;;;;;;0.30;0.30;;;29.10;58.60;;;29.75;42.51;94676.00;4995024;28;20219;-32
2023/08/25 09:39:23;;;;;;;0.30;0.30;;;29.10;58.40;;;29.77;42.39;94682.69;5001023;28;20213;-32
2023/08/25 09:41:50;;;;;;;0.30;0.30;;;29.10;58.50;;;29.79;42.48;94685.84;5014506;28;20200;-33
2023/08/25 09:44:17;;;;;;;0.30;0.30;;;29.10;58.50;;;29.80;43.05;94682.03;5014606;28;20239;-33
2023/08/25 09:46:45;;;;;;;0.20;0.20;;;29.10;58.40;;;29.83;42.50;94680.59;5012992;28;20199;-31
2023/08/25 09:49:14;;;;;;;0.30;0.30;;;29.10;58.40;;;29.85;42.67;94678.38;5009969;28;20205;-31
2023/08/25 09:51:45;;;;;;;0.30;0.30;;;29.20;58.40;;;29.86;43.03;94685.38;5013751;28;20625;-31
2023/08/25 09:54:18;;;;;;;0.28;0.28;;;29.20;58.40;;;29.87;42.67;94676.94;5014726;28;20185;-33
2023/08/25 09:56:48;;;;;;;0.20;0.20;;;29.20;58.50;;;29.89;42.97;94682.03;5001734;28;20201;-32
2023/08/25 09:59:15;;;;;;;0.28;0.28;;;29.20;58.40;;;29.93;42.37;94683.03;4993668;28;20252;-32
2023/08/25 10:01:45;;;;;;;0.30;0.30;;;29.30;58.40;;;29.95;42.87;94678.06;4993828;28;20201;-31
2023/08/25 10:04:13;;;;;;;0.30;0.30;;;29.30;58.40;;;29.98;43.02;94677.44;4994399;28;20626;-32
2023/08/25 10:06:40;;;;;;;0.30;0.30;;;29.30;58.40;;;29.98;42.29;94674.72;4994455;28;20206;-31
2023/08/25 10:09:08;;;;;;;0.30;0.30;;;29.30;58.30;;;30.01;42.56;94678.69;4994322;28;20285;-33
2023/08/25 10:11:42;;;;;;;0.20;0.20;;;29.30;58.30;;;30.02;42.61;94678.38;4994783;28;20202;-31
2023/08/25 10:14:12;;;;;;;0.30;0.30;;;29.30;58.30;;;30.03;42.51;94671.84;4994838;28;20588;-31
2023/08/25 10:16:52;;;;;;;0.30;0.30;;;29.40;58.20;;;30.05;42.09;94673.44;5011899;28;20268;-31
2023/08/25 10:19:27;;;;;;;0.30;0.30;;;29.40;58.00;;;30.07;42.69;94677.41;5005822;28;20530;-32
2023/08/25 10:21:55;;;;;;;0.30;0.30;;;29.40;58.00;;;30.10;42.56;94679.47;4994005;28;20612;-31
2023/08/25 10:24:28;;;;;;;0.30;0.30;;;29.40;58.00;;;30.11;42.40;94681.03;4999691;28;20254;-31
2023/08/25 10:26:57;;;;;;;0.30;0.30;;;29.40;57.80;;;30.13;41.88;94681.53;5013857;28;20193;-32
2023/08/25 10:29:25;;;;;;;0.30;0.30;;;29.40;58.00;;;30.15;42.47;94683.91;5013190;28;20193;-31